sensor_id;sensor_type;location;lat;lon;timestamp;temperature;humidity
6333;DHT22;3199;49.102;8.856;2023-08-01T00:02:19;18.60;99.90
6333;DHT22;3199;49.102;8.856;2023-08-01T00:04:44;18.60;99.90
6333;DHT22;3199;49.102;8.856;2023-08-01T00:07:10;18.50;99.90
6333;DHT22;3199;49.102;8.856;2023-08-01T00:09:35;18.50;99.90
6333;DHT22;3199;49.102;8.856;2023-08-01T00:12:01;18.50;99.90
6333;DHT22;3199;49.102;8.856;2023-08-01T00:14:26;18.50;99.90
6333;DHT22;3199;49.102;8.856;2023-08-01T00:16:52;18.40;99.90
6333;DHT22;3199;49.102;8.856;2023-08-01T00:19:18;18.30;99.90
6333;DHT22;3199;49.102;8.856;2023-08-01T00:21:44;18.30;99.90
6333;DHT22;3199;49.102;8.856;2023-08-01T00:24:09;18.20;99.90
6333;DHT22;3199;49.102;8.856;2023-08-01T00:26:35;18.20;99.90
6333;DHT22;3199;49.102;8.856;2023-08-01T00:29:00;18.10;99.90
6333;DHT22;3199;49.102;8.856;2023-08-01T00:31:26;18.00;99.90
6333;DHT22;3199;49.102;8.856;2023-08-01T00:33:52;18.00;99.90
6333;DHT22;3199;49.102;8.856;2023-08-01T00:36:17;17.90;99.90
6333;DHT22;3199;49.102;8.856;2023-08-01T00:38:43;17.90;99.90
6333;DHT22;3199;49.102;8.856;2023-08-01T00:41:09;18.00;99.90
6333;DHT22;3199;49.102;8.856;2023-08-01T00:43:35;18.00;99.90
6333;DHT22;3199;49.102;8.856;2023-08-01T00:46:03;18.00;99.90
6333;DHT22;3199;49.102;8.856;2023-08-01T00:48:30;17.90;99.90
6333;DHT22;3199;49.102;8.856;2023-08-01T00:50:57;17.90;99.90
6333;DHT22;3199;49.102;8.856;2023-08-01T00:53:24;17.90;99.90
6333;DHT22;3199;49.102;8.856;2023-08-01T00:55:52;17.90;99.90
6333;DHT22;3199;49.102;8.856;2023-08-01T00:58:19;17.90;99.90
6333;DHT22;3199;49.102;8.856;2023-08-01T01:00:45;17.90;99.90
6333;DHT22;3199;49.102;8.856;2023-08-01T01:03:11;17.90;99.90
6333;DHT22;3199;49.102;8.856;2023-08-01T01:05:37;17.90;99.90
6333;DHT22;3199;49.102;8.856;2023-08-01T01:08:04;17.90;99.90
6333;DHT22;3199;49.102;8.856;2023-08-01T01:10:30;17.90;99.90
6333;DHT22;3199;49.102;8.856;2023-08-01T01:12:56;17.80;99.90
6333;DHT22;3199;49.102;8.856;2023-08-01T01:15:21;17.80;99.90
6333;DHT22;3199;49.102;8.856;2023-08-01T01:17:47;17.80;99.90
6333;DHT22;3199;49.102;8.856;2023-08-01T01:20:12;17.80;99.90
6333;DHT22;3199;49.102;8.856;2023-08-01T01:22:38;17.80;99.90
6333;DHT22;3199;49.102;8.856;2023-08-01T01:25:07;17.80;99.90
6333;DHT22;3199;49.102;8.856;2023-08-01T01:27:34;17.80;99.90
6333;DHT22;3199;49.102;8.856;2023-08-01T01:30:01;17.80;99.90
6333;DHT22;3199;49.102;8.856;2023-08-01T01:32:29;17.80;99.90
6333;DHT22;3199;49.102;8.856;2023-08-01T01:34:55;17.70;99.90
6333;DHT22;3199;49.102;8.856;2023-08-01T01:37:21;17.70;99.90
6333;DHT22;3199;49.102;8.856;2023-08-01T01:39:47;17.70;99.90
6333;DHT22;3199;49.102;8.856;2023-08-01T01:42:12;17.70;99.90
6333;DHT22;3199;49.102;8.856;2023-08-01T01:44:38;17.60;99.90
6333;DHT22;3199;49.102;8.856;2023-08-01T01:47:04;17.60;99.90
6333;DHT22;3199;49.102;8.856;2023-08-01T01:49:30;17.60;99.90
6333;DHT22;3199;49.102;8.856;2023-08-01T01:51:55;17.50;99.90
6333;DHT22;3199;49.102;8.856;2023-08-01T01:54:21;17.50;99.90
6333;DHT22;3199;49.102;8.856;2023-08-01T01:56:46;17.50;99.90
6333;DHT22;3199;49.102;8.856;2023-08-01T01:59:12;17.50;99.90
6333;DHT22;3199;49.102;8.856;2023-08-01T02:01:37;17.50;99.90
6333;DHT22;3199;49.102;8.856;2023-08-01T02:04:03;17.50;99.90
6333;DHT22;3199;49.102;8.856;2023-08-01T02:06:28;17.40;99.90
6333;DHT22;3199;49.102;8.856;2023-08-01T02:08:54;17.40;99.90
6333;DHT22;3199;49.102;8.856;2023-08-01T02:11:19;17.50;99.90
6333;DHT22;3199;49.102;8.856;2023-08-01T02:13:45;17.40;99.90
6333;DHT22;3199;49.102;8.856;2023-08-01T02:16:11;17.40;99.90
6333;DHT22;3199;49.102;8.856;2023-08-01T02:18:36;17.40;99.90
6333;DHT22;3199;49.102;8.856;2023-08-01T02:21:02;17.40;99.90
6333;DHT22;3199;49.102;8.856;2023-08-01T02:23:27;17.40;99.90
6333;DHT22;3199;49.102;8.856;2023-08-01T02:25:54;17.40;99.90
6333;DHT22;3199;49.102;8.856;2023-08-01T02:28:19;17.40;99.90
6333;DHT22;3199;49.102;8.856;2023-08-01T02:30:45;17.40;99.90
6333;DHT22;3199;49.102;8.856;2023-08-01T02:33:10;17.40;99.90
6333;DHT22;3199;49.102;8.856;2023-08-01T02:35:37;17.40;99.90
6333;DHT22;3199;49.102;8.856;2023-08-01T02:38:02;17.50;99.90
6333;DHT22;3199;49.102;8.856;2023-08-01T02:40:28;17.50;99.90
6333;DHT22;3199;49.102;8.856;2023-08-01T02:42:54;17.50;99.90
6333;DHT22;3199;49.102;8.856;2023-08-01T02:45:19;17.50;99.90
6333;DHT22;3199;49.102;8.856;2023-08-01T02:47:45;17.50;99.90
6333;DHT22;3199;49.102;8.856;2023-08-01T02:50:11;17.50;99.90
6333;DHT22;3199;49.102;8.856;2023-08-01T02:52:36;17.50;99.90
6333;DHT22;3199;49.102;8.856;2023-08-01T02:55:02;17.50;99.90
6333;DHT22;3199;49.102;8.856;2023-08-01T02:57:28;17.50;99.90
6333;DHT22;3199;49.102;8.856;2023-08-01T02:59:53;17.50;99.90
6333;DHT22;3199;49.102;8.856;2023-08-01T03:02:19;17.50;99.90
6333;DHT22;3199;49.102;8.856;2023-08-01T03:04:44;17.50;99.90
6333;DHT22;3199;49.102;8.856;2023-08-01T03:07:10;17.50;99.90
6333;DHT22;3199;49.102;8.856;2023-08-01T03:09:35;17.50;99.90
6333;DHT22;3199;49.102;8.856;2023-08-01T03:12:01;17.50;99.90
6333;DHT22;3199;49.102;8.856;2023-08-01T03:14:26;17.50;99.90
6333;DHT22;3199;49.102;8.856;2023-08-01T03:16:52;17.50;99.90
6333;DHT22;3199;49.102;8.856;2023-08-01T03:19:17;17.50;99.90
6333;DHT22;3199;49.102;8.856;2023-08-01T03:21:43;17.50;99.90
6333;DHT22;3199;49.102;8.856;2023-08-01T03:24:09;17.50;99.90
6333;DHT22;3199;49.102;8.856;2023-08-01T03:26:37;17.50;99.90
6333;DHT22;3199;49.102;8.856;2023-08-01T03:29:03;17.50;99.90
6333;DHT22;3199;49.102;8.856;2023-08-01T03:31:30;17.50;99.90
6333;DHT22;3199;49.102;8.856;2023-08-01T03:33:56;17.50;99.90
6333;DHT22;3199;49.102;8.856;2023-08-01T03:36:24;17.50;99.90
6333;DHT22;3199;49.102;8.856;2023-08-01T03:38:49;17.50;99.90
6333;DHT22;3199;49.102;8.856;2023-08-01T03:41:15;17.50;99.90
6333;DHT22;3199;49.102;8.856;2023-08-01T03:43:41;17.50;99.90
6333;DHT22;3199;49.102;8.856;2023-08-01T03:46:07;17.50;99.90
6333;DHT22;3199;49.102;8.856;2023-08-01T03:48:32;17.50;99.90
6333;DHT22;3199;49.102;8.856;2023-08-01T03:50:58;17.50;99.90
6333;DHT22;3199;49.102;8.856;2023-08-01T03:53:24;17.50;99.90
6333;DHT22;3199;49.102;8.856;2023-08-01T03:55:49;17.50;99.90
6333;DHT22;3199;49.102;8.856;2023-08-01T03:58:15;17.60;99.90
6333;DHT22;3199;49.102;8.856;2023-08-01T04:00:41;17.60;99.90
6333;DHT22;3199;49.102;8.856;2023-08-01T04:03:06;17.60;99.90
6333;DHT22;3199;49.102;8.856;2023-08-01T04:05:32;17.70;99.90
6333;DHT22;3199;49.102;8.856;2023-08-01T04:07:57;17.70;99.90
6333;DHT22;3199;49.102;8.856;2023-08-01T04:10:23;17.70;99.90
6333;DHT22;3199;49.102;8.856;2023-08-01T04:12:49;17.70;99.90
6333;DHT22;3199;49.102;8.856;2023-08-01T04:15:15;17.70;99.90
6333;DHT22;3199;49.102;8.856;2023-08-01T04:17:40;17.70;99.90
6333;DHT22;3199;49.102;8.856;2023-08-01T04:20:06;17.60;99.90
6333;DHT22;3199;49.102;8.856;2023-08-01T04:22:32;17.60;99.90
6333;DHT22;3199;49.102;8.856;2023-08-01T04:24:57;17.60;99.90
6333;DHT22;3199;49.102;8.856;2023-08-01T04:27:23;17.50;99.90
6333;DHT22;3199;49.102;8.856;2023-08-01T04:29:49;17.60;99.90
6333;DHT22;3199;49.102;8.856;2023-08-01T04:32:14;17.60;99.90
6333;DHT22;3199;49.102;8.856;2023-08-01T04:34:43;17.60;99.90
6333;DHT22;3199;49.102;8.856;2023-08-01T04:37:09;17.70;99.90
6333;DHT22;3199;49.102;8.856;2023-08-01T04:39:35;17.70;99.90
6333;DHT22;3199;49.102;8.856;2023-08-01T04:42:01;17.70;99.90
6333;DHT22;3199;49.102;8.856;2023-08-01T04:44:26;17.70;99.90
6333;DHT22;3199;49.102;8.856;2023-08-01T04:46:53;17.70;99.90
6333;DHT22;3199;49.102;8.856;2023-08-01T04:49:18;17.70;99.90
6333;DHT22;3199;49.102;8.856;2023-08-01T04:51:44;17.70;99.90
6333;DHT22;3199;49.102;8.856;2023-08-01T04:54:10;17.70;99.90
6333;DHT22;3199;49.102;8.856;2023-08-01T04:56:35;17.60;99.90
6333;DHT22;3199;49.102;8.856;2023-08-01T04:59:01;17.60;99.90
6333;DHT22;3199;49.102;8.856;2023-08-01T05:01:27;17.50;99.90
6333;DHT22;3199;49.102;8.856;2023-08-01T05:03:53;17.60;99.90
6333;DHT22;3199;49.102;8.856;2023-08-01T05:06:18;17.60;99.90
6333;DHT22;3199;49.102;8.856;2023-08-01T05:08:44;17.60;99.90
6333;DHT22;3199;49.102;8.856;2023-08-01T05:11:09;17.60;99.90
6333;DHT22;3199;49.102;8.856;2023-08-01T05:13:35;17.50;99.90
6333;DHT22;3199;49.102;8.856;2023-08-01T05:16:00;17.50;99.90
6333;DHT22;3199;49.102;8.856;2023-08-01T05:18:26;17.50;99.90
6333;DHT22;3199;49.102;8.856;2023-08-01T05:20:52;17.50;99.90
6333;DHT22;3199;49.102;8.856;2023-08-01T05:23:17;17.50;99.90
6333;DHT22;3199;49.102;8.856;2023-08-01T05:25:43;17.40;99.90
6333;DHT22;3199;49.102;8.856;2023-08-01T05:28:08;17.50;99.90
6333;DHT22;3199;49.102;8.856;2023-08-01T05:30:34;17.40;99.90
6333;DHT22;3199;49.102;8.856;2023-08-01T05:33:00;17.40;99.90
6333;DHT22;3199;49.102;8.856;2023-08-01T05:35:25;17.40;99.90
6333;DHT22;3199;49.102;8.856;2023-08-01T05:37:51;17.40;99.90
6333;DHT22;3199;49.102;8.856;2023-08-01T05:40:17;17.40;99.90
6333;DHT22;3199;49.102;8.856;2023-08-01T05:42:42;17.40;99.90
6333;DHT22;3199;49.102;8.856;2023-08-01T05:45:08;17.40;99.90
6333;DHT22;3199;49.102;8.856;2023-08-01T05:47:34;17.40;99.90
6333;DHT22;3199;49.102;8.856;2023-08-01T05:50:01;17.50;99.90
6333;DHT22;3199;49.102;8.856;2023-08-01T05:52:26;17.40;99.90
6333;DHT22;3199;49.102;8.856;2023-08-01T05:54:52;17.40;99.90
6333;DHT22;3199;49.102;8.856;2023-08-01T05:57:17;17.50;99.90
6333;DHT22;3199;49.102;8.856;2023-08-01T05:59:43;17.50;99.90
6333;DHT22;3199;49.102;8.856;2023-08-01T06:02:08;17.40;99.90
6333;DHT22;3199;49.102;8.856;2023-08-01T06:04:34;17.40;99.90
6333;DHT22;3199;49.102;8.856;2023-08-01T06:06:59;17.40;99.90
6333;DHT22;3199;49.102;8.856;2023-08-01T06:09:25;17.30;99.90
6333;DHT22;3199;49.102;8.856;2023-08-01T06:11:51;17.30;99.90
6333;DHT22;3199;49.102;8.856;2023-08-01T06:14:17;17.20;99.90
6333;DHT22;3199;49.102;8.856;2023-08-01T06:16:42;17.20;99.90
6333;DHT22;3199;49.102;8.856;2023-08-01T06:19:08;17.20;99.90
6333;DHT22;3199;49.102;8.856;2023-08-01T06:21:34;17.20;99.90
6333;DHT22;3199;49.102;8.856;2023-08-01T06:23:59;17.10;99.90
6333;DHT22;3199;49.102;8.856;2023-08-01T06:26:25;17.10;99.90
6333;DHT22;3199;49.102;8.856;2023-08-01T06:28:50;17.10;99.90
6333;DHT22;3199;49.102;8.856;2023-08-01T06:31:19;17.10;99.90
6333;DHT22;3199;49.102;8.856;2023-08-01T06:33:44;17.00;99.90
6333;DHT22;3199;49.102;8.856;2023-08-01T06:36:10;17.00;99.90
6333;DHT22;3199;49.102;8.856;2023-08-01T06:38:35;17.00;99.90
6333;DHT22;3199;49.102;8.856;2023-08-01T06:41:01;16.90;99.90
6333;DHT22;3199;49.102;8.856;2023-08-01T06:43:26;16.90;99.90
6333;DHT22;3199;49.102;8.856;2023-08-01T06:45:52;16.90;99.90
6333;DHT22;3199;49.102;8.856;2023-08-01T06:48:18;16.90;99.90
6333;DHT22;3199;49.102;8.856;2023-08-01T06:50:43;16.80;99.90
6333;DHT22;3199;49.102;8.856;2023-08-01T06:53:09;16.80;99.90
6333;DHT22;3199;49.102;8.856;2023-08-01T06:55:34;16.80;99.90
6333;DHT22;3199;49.102;8.856;2023-08-01T06:58:00;16.80;99.90
6333;DHT22;3199;49.102;8.856;2023-08-01T07:00:25;16.80;99.90
6333;DHT22;3199;49.102;8.856;2023-08-01T07:02:51;16.80;99.90
6333;DHT22;3199;49.102;8.856;2023-08-01T07:05:16;16.80;99.90
6333;DHT22;3199;49.102;8.856;2023-08-01T07:07:42;16.80;99.90
6333;DHT22;3199;49.102;8.856;2023-08-01T07:10:08;16.80;99.90
6333;DHT22;3199;49.102;8.856;2023-08-01T07:12:34;16.80;99.90
6333;DHT22;3199;49.102;8.856;2023-08-01T07:14:59;16.80;99.90
6333;DHT22;3199;49.102;8.856;2023-08-01T07:17:25;16.80;99.90
6333;DHT22;3199;49.102;8.856;2023-08-01T07:19:50;16.80;99.90
6333;DHT22;3199;49.102;8.856;2023-08-01T07:22:16;16.90;99.90
6333;DHT22;3199;49.102;8.856;2023-08-01T07:24:41;16.90;99.90
6333;DHT22;3199;49.102;8.856;2023-08-01T07:27:07;17.00;99.90
6333;DHT22;3199;49.102;8.856;2023-08-01T07:29:33;17.00;99.90
6333;DHT22;3199;49.102;8.856;2023-08-01T07:31:59;17.10;99.90
6333;DHT22;3199;49.102;8.856;2023-08-01T07:34:24;17.10;99.90
6333;DHT22;3199;49.102;8.856;2023-08-01T07:36:50;17.20;99.90
6333;DHT22;3199;49.102;8.856;2023-08-01T07:39:16;17.30;99.90
6333;DHT22;3199;49.102;8.856;2023-08-01T07:41:42;17.50;99.90
6333;DHT22;3199;49.102;8.856;2023-08-01T07:44:07;17.60;99.90
6333;DHT22;3199;49.102;8.856;2023-08-01T07:46:33;17.70;99.90
6333;DHT22;3199;49.102;8.856;2023-08-01T07:48:58;17.80;99.90
6333;DHT22;3199;49.102;8.856;2023-08-01T07:51:25;17.90;99.90
6333;DHT22;3199;49.102;8.856;2023-08-01T07:53:52;17.90;99.90
6333;DHT22;3199;49.102;8.856;2023-08-01T07:56:19;17.90;99.90
6333;DHT22;3199;49.102;8.856;2023-08-01T07:58:44;17.90;99.90
6333;DHT22;3199;49.102;8.856;2023-08-01T08:01:10;17.90;99.90
6333;DHT22;3199;49.102;8.856;2023-08-01T08:03:35;17.90;99.90
6333;DHT22;3199;49.102;8.856;2023-08-01T08:06:01;17.90;99.90
6333;DHT22;3199;49.102;8.856;2023-08-01T08:08:28;17.80;99.90
6333;DHT22;3199;49.102;8.856;2023-08-01T08:10:55;17.80;99.90
6333;DHT22;3199;49.102;8.856;2023-08-01T08:13:20;17.80;99.90
6333;DHT22;3199;49.102;8.856;2023-08-01T08:15:46;17.90;99.90
6333;DHT22;3199;49.102;8.856;2023-08-01T08:18:11;18.00;99.90
6333;DHT22;3199;49.102;8.856;2023-08-01T08:20:42;18.10;99.90
6333;DHT22;3199;49.102;8.856;2023-08-01T08:23:08;18.20;99.90
6333;DHT22;3199;49.102;8.856;2023-08-01T08:25:34;18.20;99.90
6333;DHT22;3199;49.102;8.856;2023-08-01T08:27:59;18.20;99.90
6333;DHT22;3199;49.102;8.856;2023-08-01T08:30:25;18.10;99.90
6333;DHT22;3199;49.102;8.856;2023-08-01T08:32:50;18.10;99.90
6333;DHT22;3199;49.102;8.856;2023-08-01T08:35:16;18.00;99.90
6333;DHT22;3199;49.102;8.856;2023-08-01T08:37:41;18.00;99.90
6333;DHT22;3199;49.102;8.856;2023-08-01T08:40:07;18.00;99.90
6333;DHT22;3199;49.102;8.856;2023-08-01T08:42:34;18.10;99.90
6333;DHT22;3199;49.102;8.856;2023-08-01T08:45:01;18.10;99.90
6333;DHT22;3199;49.102;8.856;2023-08-01T08:47:28;18.20;99.90
6333;DHT22;3199;49.102;8.856;2023-08-01T08:49:55;18.40;99.90
6333;DHT22;3199;49.102;8.856;2023-08-01T08:52:23;18.60;99.90
6333;DHT22;3199;49.102;8.856;2023-08-01T08:54:50;18.70;99.90
6333;DHT22;3199;49.102;8.856;2023-08-01T08:57:16;18.70;99.90
6333;DHT22;3199;49.102;8.856;2023-08-01T08:59:43;18.80;99.90
6333;DHT22;3199;49.102;8.856;2023-08-01T09:02:10;18.80;99.90
6333;DHT22;3199;49.102;8.856;2023-08-01T09:04:35;18.80;99.90
6333;DHT22;3199;49.102;8.856;2023-08-01T09:07:08;18.80;99.90
6333;DHT22;3199;49.102;8.856;2023-08-01T09:09:34;18.90;99.90
6333;DHT22;3199;49.102;8.856;2023-08-01T09:12:00;18.90;99.90
6333;DHT22;3199;49.102;8.856;2023-08-01T09:14:25;18.90;99.90
6333;DHT22;3199;49.102;8.856;2023-08-01T09:16:51;19.00;99.90
6333;DHT22;3199;49.102;8.856;2023-08-01T09:19:18;19.10;99.90
6333;DHT22;3199;49.102;8.856;2023-08-01T09:21:44;19.30;99.90
6333;DHT22;3199;49.102;8.856;2023-08-01T09:26:39;19.50;99.90
6333;DHT22;3199;49.102;8.856;2023-08-01T09:29:05;19.50;99.90
6333;DHT22;3199;49.102;8.856;2023-08-01T09:31:33;19.80;99.90
6333;DHT22;3199;49.102;8.856;2023-08-01T09:34:03;20.00;99.90
6333;DHT22;3199;49.102;8.856;2023-08-01T09:36:31;20.40;99.90
6333;DHT22;3199;49.102;8.856;2023-08-01T09:39:02;21.00;99.90
6333;DHT22;3199;49.102;8.856;2023-08-01T09:41:31;21.40;99.90
6333;DHT22;3199;49.102;8.856;2023-08-01T09:43:57;21.50;99.90
6333;DHT22;3199;49.102;8.856;2023-08-01T09:46:24;21.50;99.90
6333;DHT22;3199;49.102;8.856;2023-08-01T09:48:49;21.70;99.90
6333;DHT22;3199;49.102;8.856;2023-08-01T09:51:17;21.70;99.90
6333;DHT22;3199;49.102;8.856;2023-08-01T09:53:56;21.50;99.90
6333;DHT22;3199;49.102;8.856;2023-08-01T09:56:31;21.50;99.90
6333;DHT22;3199;49.102;8.856;2023-08-01T09:58:58;21.60;99.90
6333;DHT22;3199;49.102;8.856;2023-08-01T10:01:25;21.70;99.90
6333;DHT22;3199;49.102;8.856;2023-08-01T10:03:53;21.80;99.90
6333;DHT22;3199;49.102;8.856;2023-08-01T10:06:20;21.70;99.90
6333;DHT22;3199;49.102;8.856;2023-08-01T10:08:47;21.70;99.90
6333;DHT22;3199;49.102;8.856;2023-08-01T10:11:16;21.80;99.90
6333;DHT22;3199;49.102;8.856;2023-08-01T10:13:43;22.10;99.90
6333;DHT22;3199;49.102;8.856;2023-08-01T10:16:09;22.50;99.90
6333;DHT22;3199;49.102;8.856;2023-08-01T10:18:36;22.90;99.90
6333;DHT22;3199;49.102;8.856;2023-08-01T10:21:04;23.30;99.90
6333;DHT22;3199;49.102;8.856;2023-08-01T10:23:31;23.70;99.90
6333;DHT22;3199;49.102;8.856;2023-08-01T10:25:59;23.90;99.90
6333;DHT22;3199;49.102;8.856;2023-08-01T10:28:32;23.70;99.90
6333;DHT22;3199;49.102;8.856;2023-08-01T10:31:10;23.70;99.90
6333;DHT22;3199;49.102;8.856;2023-08-01T10:33:37;23.60;99.90
6333;DHT22;3199;49.102;8.856;2023-08-01T10:36:24;23.50;99.90
6333;DHT22;3199;49.102;8.856;2023-08-01T10:38:56;23.50;99.90
6333;DHT22;3199;49.102;8.856;2023-08-01T10:41:30;23.70;99.90
6333;DHT22;3199;49.102;8.856;2023-08-01T10:44:15;23.80;99.90
6333;DHT22;3199;49.102;8.856;2023-08-01T10:47:00;23.80;99.90
6333;DHT22;3199;49.102;8.856;2023-08-01T10:49:53;24.10;99.90
6333;DHT22;3199;49.102;8.856;2023-08-01T10:52:21;24.10;99.90
6333;DHT22;3199;49.102;8.856;2023-08-01T10:55:04;23.90;99.90
6333;DHT22;3199;49.102;8.856;2023-08-01T10:57:35;24.10;99.90
6333;DHT22;3199;49.102;8.856;2023-08-01T11:00:01;24.20;99.90
6333;DHT22;3199;49.102;8.856;2023-08-01T11:02:28;24.40;99.90
6333;DHT22;3199;49.102;8.856;2023-08-01T11:07:23;24.20;99.90
6333;DHT22;3199;49.102;8.856;2023-08-01T11:09:48;24.20;99.90
6333;DHT22;3199;49.102;8.856;2023-08-01T11:12:14;24.40;99.90
6333;DHT22;3199;49.102;8.856;2023-08-01T11:14:39;24.40;99.90
6333;DHT22;3199;49.102;8.856;2023-08-01T11:17:05;24.10;99.90
6333;DHT22;3199;49.102;8.856;2023-08-01T11:19:31;23.90;99.90
6333;DHT22;3199;49.102;8.856;2023-08-01T11:21:57;23.40;99.90
6333;DHT22;3199;49.102;8.856;2023-08-01T11:24:24;23.20;99.90
6333;DHT22;3199;49.102;8.856;2023-08-01T11:26:51;23.10;99.90
6333;DHT22;3199;49.102;8.856;2023-08-01T11:29:19;23.20;99.90
6333;DHT22;3199;49.102;8.856;2023-08-01T11:31:59;23.80;99.90
6333;DHT22;3199;49.102;8.856;2023-08-01T11:34:24;24.20;99.90
6333;DHT22;3199;49.102;8.856;2023-08-01T11:36:51;24.60;99.30
6333;DHT22;3199;49.102;8.856;2023-08-01T11:39:17;24.60;96.60
6333;DHT22;3199;49.102;8.856;2023-08-01T11:41:43;24.70;95.70
6333;DHT22;3199;49.102;8.856;2023-08-01T11:44:09;24.90;95.50
6333;DHT22;3199;49.102;8.856;2023-08-01T11:46:37;24.40;94.60
6333;DHT22;3199;49.102;8.856;2023-08-01T11:49:06;24.20;95.70
6333;DHT22;3199;49.102;8.856;2023-08-01T11:51:39;24.20;95.40
6333;DHT22;3199;49.102;8.856;2023-08-01T11:54:05;24.40;95.50
6333;DHT22;3199;49.102;8.856;2023-08-01T11:56:33;24.50;95.60
6333;DHT22;3199;49.102;8.856;2023-08-01T11:58:58;24.40;95.20
6333;DHT22;3199;49.102;8.856;2023-08-01T12:01:24;24.40;95.60
6333;DHT22;3199;49.102;8.856;2023-08-01T12:03:53;24.50;96.30
6333;DHT22;3199;49.102;8.856;2023-08-01T12:06:21;24.50;95.20
6333;DHT22;3199;49.102;8.856;2023-08-01T12:08:50;24.70;95.60
6333;DHT22;3199;49.102;8.856;2023-08-01T12:11:25;24.70;94.30
6333;DHT22;3199;49.102;8.856;2023-08-01T12:14:04;24.80;94.50
6333;DHT22;3199;49.102;8.856;2023-08-01T12:16:31;24.90;95.20
6333;DHT22;3199;49.102;8.856;2023-08-01T12:18:57;25.00;93.40
6333;DHT22;3199;49.102;8.856;2023-08-01T12:21:23;24.90;92.50
6333;DHT22;3199;49.102;8.856;2023-08-01T12:23:48;24.90;92.70
6333;DHT22;3199;49.102;8.856;2023-08-01T12:26:14;25.10;92.40
6333;DHT22;3199;49.102;8.856;2023-08-01T12:28:39;25.10;92.10
6333;DHT22;3199;49.102;8.856;2023-08-01T12:31:05;25.30;91.20
6333;DHT22;3199;49.102;8.856;2023-08-01T12:33:31;25.30;89.60
6333;DHT22;3199;49.102;8.856;2023-08-01T12:35:57;25.10;88.90
6333;DHT22;3199;49.102;8.856;2023-08-01T12:38:23;25.10;89.60
6333;DHT22;3199;49.102;8.856;2023-08-01T12:40:48;25.00;89.30
6333;DHT22;3199;49.102;8.856;2023-08-01T12:43:14;24.80;90.40
6333;DHT22;3199;49.102;8.856;2023-08-01T12:45:40;24.90;91.20
6333;DHT22;3199;49.102;8.856;2023-08-01T12:48:05;25.00;90.60
6333;DHT22;3199;49.102;8.856;2023-08-01T12:50:31;25.10;90.10
6333;DHT22;3199;49.102;8.856;2023-08-01T12:52:56;25.00;88.10
6333;DHT22;3199;49.102;8.856;2023-08-01T12:55:22;24.70;87.00
6333;DHT22;3199;49.102;8.856;2023-08-01T12:57:47;24.90;90.40
6333;DHT22;3199;49.102;8.856;2023-08-01T13:00:13;25.10;87.10
6333;DHT22;3199;49.102;8.856;2023-08-01T13:02:38;25.30;86.10
6333;DHT22;3199;49.102;8.856;2023-08-01T13:05:05;25.20;83.60
6333;DHT22;3199;49.102;8.856;2023-08-01T13:07:30;25.30;84.90
6333;DHT22;3199;49.102;8.856;2023-08-01T13:10:00;25.30;85.80
6333;DHT22;3199;49.102;8.856;2023-08-01T13:12:26;25.40;85.50
6333;DHT22;3199;49.102;8.856;2023-08-01T13:14:51;25.60;84.60
6333;DHT22;3199;49.102;8.856;2023-08-01T13:17:17;25.60;82.50
6333;DHT22;3199;49.102;8.856;2023-08-01T13:19:42;25.40;81.90
6333;DHT22;3199;49.102;8.856;2023-08-01T13:22:08;25.10;80.30
6333;DHT22;3199;49.102;8.856;2023-08-01T13:24:33;25.20;81.30
6333;DHT22;3199;49.102;8.856;2023-08-01T13:26:59;25.30;81.70
6333;DHT22;3199;49.102;8.856;2023-08-01T13:29:24;25.20;79.80
6333;DHT22;3199;49.102;8.856;2023-08-01T13:31:50;25.20;80.70
6333;DHT22;3199;49.102;8.856;2023-08-01T13:34:15;25.30;81.60
6333;DHT22;3199;49.102;8.856;2023-08-01T13:36:42;25.40;79.20
6333;DHT22;3199;49.102;8.856;2023-08-01T13:39:08;25.20;78.50
6333;DHT22;3199;49.102;8.856;2023-08-01T13:41:34;24.90;78.80
6333;DHT22;3199;49.102;8.856;2023-08-01T13:43:59;24.80;81.80
6333;DHT22;3199;49.102;8.856;2023-08-01T13:46:25;24.90;82.20
6333;DHT22;3199;49.102;8.856;2023-08-01T13:48:50;25.20;82.20
6333;DHT22;3199;49.102;8.856;2023-08-01T13:51:16;25.50;82.70
6333;DHT22;3199;49.102;8.856;2023-08-01T13:53:42;25.70;81.50
6333;DHT22;3199;49.102;8.856;2023-08-01T13:56:11;25.60;79.30
6333;DHT22;3199;49.102;8.856;2023-08-01T13:58:41;25.30;79.70
6333;DHT22;3199;49.102;8.856;2023-08-01T14:01:08;25.10;80.30
6333;DHT22;3199;49.102;8.856;2023-08-01T14:03:35;25.20;80.90
6333;DHT22;3199;49.102;8.856;2023-08-01T14:06:11;25.10;81.10
6333;DHT22;3199;49.102;8.856;2023-08-01T14:08:38;25.00;79.60
6333;DHT22;3199;49.102;8.856;2023-08-01T14:11:05;25.20;80.10
6333;DHT22;3199;49.102;8.856;2023-08-01T14:13:31;25.20;78.00
6333;DHT22;3199;49.102;8.856;2023-08-01T14:15:57;24.90;76.90
6333;DHT22;3199;49.102;8.856;2023-08-01T14:18:22;24.70;76.10
6333;DHT22;3199;49.102;8.856;2023-08-01T14:20:48;24.70;78.80
6333;DHT22;3199;49.102;8.856;2023-08-01T14:23:13;24.60;76.30
6333;DHT22;3199;49.102;8.856;2023-08-01T14:25:39;24.50;77.00
6333;DHT22;3199;49.102;8.856;2023-08-01T14:28:05;24.40;76.90
6333;DHT22;3199;49.102;8.856;2023-08-01T14:30:30;24.20;77.80
6333;DHT22;3199;49.102;8.856;2023-08-01T14:33:04;23.90;78.20
6333;DHT22;3199;49.102;8.856;2023-08-01T14:35:30;24.00;80.30
6333;DHT22;3199;49.102;8.856;2023-08-01T14:37:56;24.10;79.40
6333;DHT22;3199;49.102;8.856;2023-08-01T14:40:22;24.30;80.10
6333;DHT22;3199;49.102;8.856;2023-08-01T14:42:48;24.50;81.20
6333;DHT22;3199;49.102;8.856;2023-08-01T14:45:14;24.50;77.00
6333;DHT22;3199;49.102;8.856;2023-08-01T14:47:43;24.50;78.80
6333;DHT22;3199;49.102;8.856;2023-08-01T14:50:13;24.50;77.50
6333;DHT22;3199;49.102;8.856;2023-08-01T14:52:39;24.40;76.40
6333;DHT22;3199;49.102;8.856;2023-08-01T14:55:06;24.30;76.80
6333;DHT22;3199;49.102;8.856;2023-08-01T14:57:31;24.20;78.20
6333;DHT22;3199;49.102;8.856;2023-08-01T14:59:58;24.20;78.30
6333;DHT22;3199;49.102;8.856;2023-08-01T15:02:23;24.10;77.60
6333;DHT22;3199;49.102;8.856;2023-08-01T15:04:53;23.90;77.80
6333;DHT22;3199;49.102;8.856;2023-08-01T15:07:21;23.80;78.50
6333;DHT22;3199;49.102;8.856;2023-08-01T15:09:47;23.70;79.60
6333;DHT22;3199;49.102;8.856;2023-08-01T15:12:13;23.60;79.90
6333;DHT22;3199;49.102;8.856;2023-08-01T15:14:38;23.50;78.50
6333;DHT22;3199;49.102;8.856;2023-08-01T15:17:04;23.50;79.30
6333;DHT22;3199;49.102;8.856;2023-08-01T15:19:32;23.60;79.30
6333;DHT22;3199;49.102;8.856;2023-08-01T15:21:57;23.70;78.30
6333;DHT22;3199;49.102;8.856;2023-08-01T15:24:23;23.70;78.50
6333;DHT22;3199;49.102;8.856;2023-08-01T15:26:49;23.80;79.00
6333;DHT22;3199;49.102;8.856;2023-08-01T15:29:15;23.70;79.70
6333;DHT22;3199;49.102;8.856;2023-08-01T15:31:41;23.70;80.40
6333;DHT22;3199;49.102;8.856;2023-08-01T15:34:06;23.70;81.30
6333;DHT22;3199;49.102;8.856;2023-08-01T15:36:34;23.80;81.60
6333;DHT22;3199;49.102;8.856;2023-08-01T15:38:59;23.80;81.50
6333;DHT22;3199;49.102;8.856;2023-08-01T15:41:26;23.80;81.30
6333;DHT22;3199;49.102;8.856;2023-08-01T15:43:51;23.90;81.40
6333;DHT22;3199;49.102;8.856;2023-08-01T15:46:17;24.00;81.00
6333;DHT22;3199;49.102;8.856;2023-08-01T15:48:42;24.00;79.90
6333;DHT22;3199;49.102;8.856;2023-08-01T15:51:08;23.90;79.70
6333;DHT22;3199;49.102;8.856;2023-08-01T15:53:34;23.80;79.60
6333;DHT22;3199;49.102;8.856;2023-08-01T15:56:01;23.70;80.00
6333;DHT22;3199;49.102;8.856;2023-08-01T15:58:27;23.80;81.40
6333;DHT22;3199;49.102;8.856;2023-08-01T16:00:55;23.80;80.80
6333;DHT22;3199;49.102;8.856;2023-08-01T16:03:20;23.70;81.40